sensor_id;sensor_type;location;lat;lon;timestamp;temperature;humidity
52565;DHT22;38460;53.106;7.004;2023-09-30T00:00:26;12.20;99.90
52565;DHT22;38460;53.106;7.004;2023-09-30T00:02:52;12.20;99.90
52565;DHT22;38460;53.106;7.004;2023-09-30T00:05:17;12.20;99.90
52565;DHT22;38460;53.106;7.004;2023-09-30T00:07:46;12.20;99.90
52565;DHT22;38460;53.106;7.004;2023-09-30T00:10:12;12.20;99.90
52565;DHT22;38460;53.106;7.004;2023-09-30T00:12:38;12.20;99.90
52565;DHT22;38460;53.106;7.004;2023-09-30T00:15:04;12.20;99.90
52565;DHT22;38460;53.106;7.004;2023-09-30T00:17:30;12.20;99.90
52565;DHT22;38460;53.106;7.004;2023-09-30T00:19:56;12.20;99.90
52565;DHT22;38460;53.106;7.004;2023-09-30T00:22:21;12.20;99.90
52565;DHT22;38460;53.106;7.004;2023-09-30T00:24:47;12.20;99.90
52565;DHT22;38460;53.106;7.004;2023-09-30T00:27:13;12.20;99.90
52565;DHT22;38460;53.106;7.004;2023-09-30T00:29:39;12.20;99.90
52565;DHT22;38460;53.106;7.004;2023-09-30T00:32:05;12.20;99.90
52565;DHT22;38460;53.106;7.004;2023-09-30T00:34:34;12.20;99.90
52565;DHT22;38460;53.106;7.004;2023-09-30T00:37:01;12.30;99.90
52565;DHT22;38460;53.106;7.004;2023-09-30T00:39:26;12.20;99.90
52565;DHT22;38460;53.106;7.004;2023-09-30T00:41:56;12.10;99.90
52565;DHT22;38460;53.106;7.004;2023-09-30T00:44:27;12.20;99.90
52565;DHT22;38460;53.106;7.004;2023-09-30T00:46:54;12.20;99.90
52565;DHT22;38460;53.106;7.004;2023-09-30T00:49:24;12.20;99.90
52565;DHT22;38460;53.106;7.004;2023-09-30T00:51:50;12.20;99.90
52565;DHT22;38460;53.106;7.004;2023-09-30T00:54:17;12.10;99.90
52565;DHT22;38460;53.106;7.004;2023-09-30T00:56:45;12.10;99.90
52565;DHT22;38460;53.106;7.004;2023-09-30T00:59:17;12.10;99.90
52565;DHT22;38460;53.106;7.004;2023-09-30T01:01:44;12.10;99.90
52565;DHT22;38460;53.106;7.004;2023-09-30T01:04:13;12.10;99.90
52565;DHT22;38460;53.106;7.004;2023-09-30T01:06:40;12.20;99.90
52565;DHT22;38460;53.106;7.004;2023-09-30T01:09:07;12.10;99.90
52565;DHT22;38460;53.106;7.004;2023-09-30T01:11:34;12.10;99.90
52565;DHT22;38460;53.106;7.004;2023-09-30T01:14:00;12.10;99.90
52565;DHT22;38460;53.106;7.004;2023-09-30T01:16:25;12.10;99.90
52565;DHT22;38460;53.106;7.004;2023-09-30T01:18:51;12.10;99.90
52565;DHT22;38460;53.106;7.004;2023-09-30T01:21:18;12.10;99.90
52565;DHT22;38460;53.106;7.004;2023-09-30T01:23:44;12.10;99.90
52565;DHT22;38460;53.106;7.004;2023-09-30T01:26:12;12.10;99.90
52565;DHT22;38460;53.106;7.004;2023-09-30T01:28:39;12.10;99.90
52565;DHT22;38460;53.106;7.004;2023-09-30T01:31:05;12.10;99.90
52565;DHT22;38460;53.106;7.004;2023-09-30T01:33:31;12.10;99.90
52565;DHT22;38460;53.106;7.004;2023-09-30T01:35:58;12.10;99.90
52565;DHT22;38460;53.106;7.004;2023-09-30T01:38:24;12.10;99.90
52565;DHT22;38460;53.106;7.004;2023-09-30T01:40:50;12.10;99.90
52565;DHT22;38460;53.106;7.004;2023-09-30T01:43:16;12.10;99.90
52565;DHT22;38460;53.106;7.004;2023-09-30T01:45:42;12.10;99.90
52565;DHT22;38460;53.106;7.004;2023-09-30T01:48:08;12.10;99.90
52565;DHT22;38460;53.106;7.004;2023-09-30T01:50:40;12.10;99.90
52565;DHT22;38460;53.106;7.004;2023-09-30T01:53:06;12.10;99.90
52565;DHT22;38460;53.106;7.004;2023-09-30T01:55:36;12.10;99.90
52565;DHT22;38460;53.106;7.004;2023-09-30T01:58:02;12.10;99.90
52565;DHT22;38460;53.106;7.004;2023-09-30T02:00:28;12.10;99.90
52565;DHT22;38460;53.106;7.004;2023-09-30T02:02:55;12.10;99.90
52565;DHT22;38460;53.106;7.004;2023-09-30T02:05:22;12.10;99.90
52565;DHT22;38460;53.106;7.004;2023-09-30T02:07:48;12.10;99.90
52565;DHT22;38460;53.106;7.004;2023-09-30T02:10:15;12.10;99.90
52565;DHT22;38460;53.106;7.004;2023-09-30T02:12:41;12.00;99.90
52565;DHT22;38460;53.106;7.004;2023-09-30T02:15:07;12.00;99.90
52565;DHT22;38460;53.106;7.004;2023-09-30T02:17:33;12.00;99.90
52565;DHT22;38460;53.106;7.004;2023-09-30T02:19:59;12.00;99.90
52565;DHT22;38460;53.106;7.004;2023-09-30T02:22:27;12.00;99.90
52565;DHT22;38460;53.106;7.004;2023-09-30T02:24:53;12.00;99.90
52565;DHT22;38460;53.106;7.004;2023-09-30T02:27:20;12.00;99.90
52565;DHT22;38460;53.106;7.004;2023-09-30T02:29:45;12.00;99.90
52565;DHT22;38460;53.106;7.004;2023-09-30T02:32:11;12.00;99.90
52565;DHT22;38460;53.106;7.004;2023-09-30T02:34:39;11.90;99.90
52565;DHT22;38460;53.106;7.004;2023-09-30T02:37:05;12.00;99.90
52565;DHT22;38460;53.106;7.004;2023-09-30T02:39:30;11.90;99.90
52565;DHT22;38460;53.106;7.004;2023-09-30T02:41:56;11.90;99.90
52565;DHT22;38460;53.106;7.004;2023-09-30T02:44:22;11.90;99.90
52565;DHT22;38460;53.106;7.004;2023-09-30T02:46:48;11.90;99.90
52565;DHT22;38460;53.106;7.004;2023-09-30T02:49:13;11.90;99.90
52565;DHT22;38460;53.106;7.004;2023-09-30T02:51:39;11.90;99.90
52565;DHT22;38460;53.106;7.004;2023-09-30T02:54:05;11.90;99.90
52565;DHT22;38460;53.106;7.004;2023-09-30T02:56:31;11.90;99.90
52565;DHT22;38460;53.106;7.004;2023-09-30T02:58:57;11.90;99.90
52565;DHT22;38460;53.106;7.004;2023-09-30T03:01:25;11.90;99.90
52565;DHT22;38460;53.106;7.004;2023-09-30T03:03:52;11.90;99.90
52565;DHT22;38460;53.106;7.004;2023-09-30T03:06:17;11.90;99.90
52565;DHT22;38460;53.106;7.004;2023-09-30T03:08:44;11.90;99.90
52565;DHT22;38460;53.106;7.004;2023-09-30T03:11:09;11.90;99.90
52565;DHT22;38460;53.106;7.004;2023-09-30T03:13:36;11.90;99.90
52565;DHT22;38460;53.106;7.004;2023-09-30T03:16:03;11.90;99.90
52565;DHT22;38460;53.106;7.004;2023-09-30T03:18:29;11.90;99.90
52565;DHT22;38460;53.106;7.004;2023-09-30T03:21:00;11.90;99.90
52565;DHT22;38460;53.106;7.004;2023-09-30T03:23:29;11.90;99.90
52565;DHT22;38460;53.106;7.004;2023-09-30T03:26:00;11.90;99.90
52565;DHT22;38460;53.106;7.004;2023-09-30T03:28:26;11.90;99.90
52565;DHT22;38460;53.106;7.004;2023-09-30T03:30:52;11.90;99.90
52565;DHT22;38460;53.106;7.004;2023-09-30T03:33:18;11.90;99.90
52565;DHT22;38460;53.106;7.004;2023-09-30T03:35:44;11.90;99.90
52565;DHT22;38460;53.106;7.004;2023-09-30T03:38:10;11.90;99.90
52565;DHT22;38460;53.106;7.004;2023-09-30T03:40:39;11.90;99.90
52565;DHT22;38460;53.106;7.004;2023-09-30T03:43:05;11.90;99.90
52565;DHT22;38460;53.106;7.004;2023-09-30T03:45:31;11.90;99.90
52565;DHT22;38460;53.106;7.004;2023-09-30T03:48:01;11.90;99.90
52565;DHT22;38460;53.106;7.004;2023-09-30T03:50:28;11.90;99.90
52565;DHT22;38460;53.106;7.004;2023-09-30T03:53:05;11.90;99.90
52565;DHT22;38460;53.106;7.004;2023-09-30T03:55:34;11.90;99.90
52565;DHT22;38460;53.106;7.004;2023-09-30T03:58:00;11.90;99.90
52565;DHT22;38460;53.106;7.004;2023-09-30T04:00:26;11.90;99.90
52565;DHT22;38460;53.106;7.004;2023-09-30T04:02:52;11.90;99.90
52565;DHT22;38460;53.106;7.004;2023-09-30T04:05:20;11.90;99.90
52565;DHT22;38460;53.106;7.004;2023-09-30T04:07:49;11.90;99.90
52565;DHT22;38460;53.106;7.004;2023-09-30T04:10:16;11.90;99.90
52565;DHT22;38460;53.106;7.004;2023-09-30T04:12:42;11.80;99.90
52565;DHT22;38460;53.106;7.004;2023-09-30T04:15:08;11.80;99.90
52565;DHT22;38460;53.106;7.004;2023-09-30T04:17:37;11.80;99.90
52565;DHT22;38460;53.106;7.004;2023-09-30T04:20:06;11.80;99.90
52565;DHT22;38460;53.106;7.004;2023-09-30T04:22:35;11.80;99.90
52565;DHT22;38460;53.106;7.004;2023-09-30T04:25:01;11.80;99.90
52565;DHT22;38460;53.106;7.004;2023-09-30T04:27:30;11.80;99.90
52565;DHT22;38460;53.106;7.004;2023-09-30T04:29:56;11.80;99.90
52565;DHT22;38460;53.106;7.004;2023-09-30T04:32:22;11.80;99.90
52565;DHT22;38460;53.106;7.004;2023-09-30T04:34:48;11.80;99.90
52565;DHT22;38460;53.106;7.004;2023-09-30T04:37:14;11.80;99.90
52565;DHT22;38460;53.106;7.004;2023-09-30T04:39:39;11.80;99.90
52565;DHT22;38460;53.106;7.004;2023-09-30T04:42:05;11.80;99.90
52565;DHT22;38460;53.106;7.004;2023-09-30T04:44:34;11.80;99.90
52565;DHT22;38460;53.106;7.004;2023-09-30T04:46:59;11.80;99.90
52565;DHT22;38460;53.106;7.004;2023-09-30T04:49:26;11.80;99.90
52565;DHT22;38460;53.106;7.004;2023-09-30T04:51:51;11.80;99.90
52565;DHT22;38460;53.106;7.004;2023-09-30T04:54:18;11.80;99.90
52565;DHT22;38460;53.106;7.004;2023-09-30T04:56:44;11.80;99.90
52565;DHT22;38460;53.106;7.004;2023-09-30T04:59:12;11.80;99.90
52565;DHT22;38460;53.106;7.004;2023-09-30T05:01:38;11.80;99.90
52565;DHT22;38460;53.106;7.004;2023-09-30T05:04:04;11.80;99.90
52565;DHT22;38460;53.106;7.004;2023-09-30T05:06:31;11.80;99.90
52565;DHT22;38460;53.106;7.004;2023-09-30T05:08:58;11.70;99.90
52565;DHT22;38460;53.106;7.004;2023-09-30T05:11:24;11.70;99.90
52565;DHT22;38460;53.106;7.004;2023-09-30T05:13:50;11.70;99.90
52565;DHT22;38460;53.106;7.004;2023-09-30T05:16:17;11.70;99.90
52565;DHT22;38460;53.106;7.004;2023-09-30T05:18:43;11.70;99.90
52565;DHT22;38460;53.106;7.004;2023-09-30T05:21:09;11.70;99.90
52565;DHT22;38460;53.106;7.004;2023-09-30T05:23:37;11.60;99.90
52565;DHT22;38460;53.106;7.004;2023-09-30T05:26:04;11.70;99.90
52565;DHT22;38460;53.106;7.004;2023-09-30T05:28:29;11.60;99.90
52565;DHT22;38460;53.106;7.004;2023-09-30T05:30:57;11.60;99.90
52565;DHT22;38460;53.106;7.004;2023-09-30T05:33:22;11.60;99.90
52565;DHT22;38460;53.106;7.004;2023-09-30T05:35:48;11.60;99.90
52565;DHT22;38460;53.106;7.004;2023-09-30T05:38:14;11.60;99.90
52565;DHT22;38460;53.106;7.004;2023-09-30T05:40:39;11.60;99.90
52565;DHT22;38460;53.106;7.004;2023-09-30T05:43:07;11.60;99.90
52565;DHT22;38460;53.106;7.004;2023-09-30T05:45:33;11.60;99.90
52565;DHT22;38460;53.106;7.004;2023-09-30T05:48:04;11.60;99.90
52565;DHT22;38460;53.106;7.004;2023-09-30T05:50:35;11.60;99.90
52565;DHT22;38460;53.106;7.004;2023-09-30T05:53:02;11.60;99.90
52565;DHT22;38460;53.106;7.004;2023-09-30T05:55:28;11.60;99.90
52565;DHT22;38460;53.106;7.004;2023-09-30T05:57:54;11.60;99.90
52565;DHT22;38460;53.106;7.004;2023-09-30T06:00:20;11.60;99.90
52565;DHT22;38460;53.106;7.004;2023-09-30T06:02:55;11.60;99.90
52565;DHT22;38460;53.106;7.004;2023-09-30T06:05:21;11.60;99.90
52565;DHT22;38460;53.106;7.004;2023-09-30T06:07:52;11.60;99.90
52565;DHT22;38460;53.106;7.004;2023-09-30T06:10:19;11.60;99.90
52565;DHT22;38460;53.106;7.004;2023-09-30T06:12:46;11.60;99.90
52565;DHT22;38460;53.106;7.004;2023-09-30T06:15:14;11.60;99.90
52565;DHT22;38460;53.106;7.004;2023-09-30T06:17:41;11.60;99.90
52565;DHT22;38460;53.106;7.004;2023-09-30T06:20:07;11.60;99.90
52565;DHT22;38460;53.106;7.004;2023-09-30T06:22:35;11.60;99.90
52565;DHT22;38460;53.106;7.004;2023-09-30T06:25:01;11.60;99.90
52565;DHT22;38460;53.106;7.004;2023-09-30T06:27:29;11.60;99.90
52565;DHT22;38460;53.106;7.004;2023-09-30T06:29:55;11.60;99.90
52565;DHT22;38460;53.106;7.004;2023-09-30T06:32:21;11.60;99.90
52565;DHT22;38460;53.106;7.004;2023-09-30T06:34:47;11.60;99.90
52565;DHT22;38460;53.106;7.004;2023-09-30T06:37:12;11.70;99.90
52565;DHT22;38460;53.106;7.004;2023-09-30T06:39:39;11.70;99.90
52565;DHT22;38460;53.106;7.004;2023-09-30T06:42:05;11.70;99.90
52565;DHT22;38460;53.106;7.004;2023-09-30T06:44:32;11.70;99.90
52565;DHT22;38460;53.106;7.004;2023-09-30T06:46:58;11.70;99.90
52565;DHT22;38460;53.106;7.004;2023-09-30T06:49:24;11.70;99.90
52565;DHT22;38460;53.106;7.004;2023-09-30T06:51:49;11.70;99.90
52565;DHT22;38460;53.106;7.004;2023-09-30T06:54:15;11.70;99.90
52565;DHT22;38460;53.106;7.004;2023-09-30T06:56:41;11.80;99.90
52565;DHT22;38460;53.106;7.004;2023-09-30T06:59:07;11.80;99.90
52565;DHT22;38460;53.106;7.004;2023-09-30T07:01:32;11.80;99.90
52565;DHT22;38460;53.106;7.004;2023-09-30T07:03:58;11.80;99.90
52565;DHT22;38460;53.106;7.004;2023-09-30T07:06:25;11.90;99.90
52565;DHT22;38460;53.106;7.004;2023-09-30T07:08:51;11.90;99.90
52565;DHT22;38460;53.106;7.004;2023-09-30T07:11:16;12.00;99.90
52565;DHT22;38460;53.106;7.004;2023-09-30T07:13:42;12.00;99.90
52565;DHT22;38460;53.106;7.004;2023-09-30T07:16:08;12.10;99.90
52565;DHT22;38460;53.106;7.004;2023-09-30T07:18:34;12.10;99.90
52565;DHT22;38460;53.106;7.004;2023-09-30T07:21:00;12.10;99.90
52565;DHT22;38460;53.106;7.004;2023-09-30T07:23:25;12.20;99.90
52565;DHT22;38460;53.106;7.004;2023-09-30T07:25:51;12.20;99.90
52565;DHT22;38460;53.106;7.004;2023-09-30T07:28:17;12.20;99.90
52565;DHT22;38460;53.106;7.004;2023-09-30T07:30:43;12.30;99.90
52565;DHT22;38460;53.106;7.004;2023-09-30T07:33:10;12.30;99.90
52565;DHT22;38460;53.106;7.004;2023-09-30T07:35:37;12.40;99.90
52565;DHT22;38460;53.106;7.004;2023-09-30T07:38:04;12.40;99.90
52565;DHT22;38460;53.106;7.004;2023-09-30T07:40:30;12.50;99.90
52565;DHT22;38460;53.106;7.004;2023-09-30T07:42:56;12.50;99.90
52565;DHT22;38460;53.106;7.004;2023-09-30T07:45:22;12.60;99.90
52565;DHT22;38460;53.106;7.004;2023-09-30T07:47:48;12.60;99.90
52565;DHT22;38460;53.106;7.004;2023-09-30T07:50:14;12.70;99.90
52565;DHT22;38460;53.106;7.004;2023-09-30T07:52:41;12.70;99.90
52565;DHT22;38460;53.106;7.004;2023-09-30T07:55:08;12.80;99.90
52565;DHT22;38460;53.106;7.004;2023-09-30T07:57:34;12.80;99.90
52565;DHT22;38460;53.106;7.004;2023-09-30T08:00:00;12.90;99.90
52565;DHT22;38460;53.106;7.004;2023-09-30T08:02:28;12.90;99.90
52565;DHT22;38460;53.106;7.004;2023-09-30T08:04:59;13.00;99.90
52565;DHT22;38460;53.106;7.004;2023-09-30T08:07:26;13.00;99.90
52565;DHT22;38460;53.106;7.004;2023-09-30T08:09:52;13.10;99.90
52565;DHT22;38460;53.106;7.004;2023-09-30T08:12:17;13.10;99.90
52565;DHT22;38460;53.106;7.004;2023-09-30T08:14:43;13.20;99.90
52565;DHT22;38460;53.106;7.004;2023-09-30T08:17:12;13.20;99.90
52565;DHT22;38460;53.106;7.004;2023-09-30T08:19:37;13.30;99.90
52565;DHT22;38460;53.106;7.004;2023-09-30T08:22:03;13.30;99.90
52565;DHT22;38460;53.106;7.004;2023-09-30T08:24:29;13.40;99.90
52565;DHT22;38460;53.106;7.004;2023-09-30T08:26:55;13.50;99.90
52565;DHT22;38460;53.106;7.004;2023-09-30T08:29:22;13.50;99.90
52565;DHT22;38460;53.106;7.004;2023-09-30T08:31:48;13.60;99.90
52565;DHT22;38460;53.106;7.004;2023-09-30T08:34:16;13.60;99.90
52565;DHT22;38460;53.106;7.004;2023-09-30T08:36:42;13.70;99.90
52565;DHT22;38460;53.106;7.004;2023-09-30T08:39:08;13.70;99.90
52565;DHT22;38460;53.106;7.004;2023-09-30T08:41:36;13.40;99.90
52565;DHT22;38460;53.106;7.004;2023-09-30T08:44:03;13.90;99.90
52565;DHT22;38460;53.106;7.004;2023-09-30T08:46:33;13.90;99.90
52565;DHT22;38460;53.106;7.004;2023-09-30T08:49:04;14.00;99.90
52565;DHT22;38460;53.106;7.004;2023-09-30T08:51:32;14.10;99.90
52565;DHT22;38460;53.106;7.004;2023-09-30T08:53:59;14.10;99.90
52565;DHT22;38460;53.106;7.004;2023-09-30T08:56:27;14.20;99.90
52565;DHT22;38460;53.106;7.004;2023-09-30T08:58:58;14.30;99.90
52565;DHT22;38460;53.106;7.004;2023-09-30T09:01:28;14.40;99.90
52565;DHT22;38460;53.106;7.004;2023-09-30T09:03:54;14.40;99.90
52565;DHT22;38460;53.106;7.004;2023-09-30T09:06:21;14.50;99.90
52565;DHT22;38460;53.106;7.004;2023-09-30T09:08:48;14.60;99.90
52565;DHT22;38460;53.106;7.004;2023-09-30T09:11:14;14.70;99.90
52565;DHT22;38460;53.106;7.004;2023-09-30T09:13:53;14.80;99.90
52565;DHT22;38460;53.106;7.004;2023-09-30T09:16:22;14.80;99.90
52565;DHT22;38460;53.106;7.004;2023-09-30T09:18:48;14.90;99.90
52565;DHT22;38460;53.106;7.004;2023-09-30T09:21:19;15.00;99.90
52565;DHT22;38460;53.106;7.004;2023-09-30T09:23:48;15.00;99.90
52565;DHT22;38460;53.106;7.004;2023-09-30T09:26:29;15.10;99.90
52565;DHT22;38460;53.106;7.004;2023-09-30T09:29:03;15.20;99.90
52565;DHT22;38460;53.106;7.004;2023-09-30T09:31:32;15.30;99.90
52565;DHT22;38460;53.106;7.004;2023-09-30T09:34:00;15.40;99.90
52565;DHT22;38460;53.106;7.004;2023-09-30T09:36:45;15.40;99.90
52565;DHT22;38460;53.106;7.004;2023-09-30T09:39:14;15.50;99.90
52565;DHT22;38460;53.106;7.004;2023-09-30T09:41:52;15.60;99.90
52565;DHT22;38460;53.106;7.004;2023-09-30T09:44:22;15.70;99.90
52565;DHT22;38460;53.106;7.004;2023-09-30T09:46:48;15.80;99.90
52565;DHT22;38460;53.106;7.004;2023-09-30T09:49:19;15.80;99.90
52565;DHT22;38460;53.106;7.004;2023-09-30T09:51:46;15.90;99.90
52565;DHT22;38460;53.106;7.004;2023-09-30T09:54:12;15.90;99.90
52565;DHT22;38460;53.106;7.004;2023-09-30T09:56:39;16.00;99.90
52565;DHT22;38460;53.106;7.004;2023-09-30T09:59:05;16.10;99.90
52565;DHT22;38460;53.106;7.004;2023-09-30T10:01:33;16.10;99.90
52565;DHT22;38460;53.106;7.004;2023-09-30T10:04:02;16.20;99.90
52565;DHT22;38460;53.106;7.004;2023-09-30T10:06:28;16.30;99.90
52565;DHT22;38460;53.106;7.004;2023-09-30T10:08:54;16.30;99.90
52565;DHT22;38460;53.106;7.004;2023-09-30T10:11:23;16.40;99.90
52565;DHT22;38460;53.106;7.004;2023-09-30T10:13:57;16.60;99.90
52565;DHT22;38460;53.106;7.004;2023-09-30T10:19:15;16.90;99.90
52565;DHT22;38460;53.106;7.004;2023-09-30T10:24:48;17.10;99.90
52565;DHT22;38460;53.106;7.004;2023-09-30T10:35:42;17.30;99.90
52565;DHT22;38460;53.106;7.004;2023-09-30T10:40:53;17.40;99.90
52565;DHT22;38460;53.106;7.004;2023-09-30T10:43:38;17.40;99.90
52565;DHT22;38460;53.106;7.004;2023-09-30T10:48:52;17.60;99.90
52565;DHT22;38460;53.106;7.004;2023-09-30T10:51:19;17.70;99.90
52565;DHT22;38460;53.106;7.004;2023-09-30T10:53:51;17.70;99.90
52565;DHT22;38460;53.106;7.004;2023-09-30T10:56:20;17.70;99.90
52565;DHT22;38460;53.106;7.004;2023-09-30T10:58:53;18.10;99.90
52565;DHT22;38460;53.106;7.004;2023-09-30T11:01:21;17.70;99.90
52565;DHT22;38460;53.106;7.004;2023-09-30T11:03:48;17.60;99.90
52565;DHT22;38460;53.106;7.004;2023-09-30T11:06:19;17.50;99.90
52565;DHT22;38460;53.106;7.004;2023-09-30T11:08:54;17.70;99.90
52565;DHT22;38460;53.106;7.004;2023-09-30T11:14:01;17.90;99.90
52565;DHT22;38460;53.106;7.004;2023-09-30T11:16:26;18.00;99.90
52565;DHT22;38460;53.106;7.004;2023-09-30T11:18:55;17.90;99.90
52565;DHT22;38460;53.106;7.004;2023-09-30T11:21:22;18.00;99.90
52565;DHT22;38460;53.106;7.004;2023-09-30T11:23:51;17.90;99.90
52565;DHT22;38460;53.106;7.004;2023-09-30T11:26:29;17.80;99.90
52565;DHT22;38460;53.106;7.004;2023-09-30T11:29:05;17.80;99.90
52565;DHT22;38460;53.106;7.004;2023-09-30T11:31:31;17.80;99.90
52565;DHT22;38460;53.106;7.004;2023-09-30T11:34:00;17.90;99.90
52565;DHT22;38460;53.106;7.004;2023-09-30T11:36:30;18.00;99.90
52565;DHT22;38460;53.106;7.004;2023-09-30T11:38:57;18.20;99.90
52565;DHT22;38460;53.106;7.004;2023-09-30T11:41:33;18.30;99.90
52565;DHT22;38460;53.106;7.004;2023-09-30T11:44:04;18.50;99.90
52565;DHT22;38460;53.106;7.004;2023-09-30T11:46:31;18.60;99.90
52565;DHT22;38460;53.106;7.004;2023-09-30T11:49:03;18.70;99.90
52565;DHT22;38460;53.106;7.004;2023-09-30T11:51:42;18.90;99.90
52565;DHT22;38460;53.106;7.004;2023-09-30T11:54:11;19.00;99.90
52565;DHT22;38460;53.106;7.004;2023-09-30T11:56:39;19.00;99.90
52565;DHT22;38460;53.106;7.004;2023-09-30T11:59:05;19.10;99.90
52565;DHT22;38460;53.106;7.004;2023-09-30T12:01:31;19.20;99.90
52565;DHT22;38460;53.106;7.004;2023-09-30T12:03:58;19.30;99.90
52565;DHT22;38460;53.106;7.004;2023-09-30T12:06:24;19.30;99.90
52565;DHT22;38460;53.106;7.004;2023-09-30T12:08:51;19.30;99.90
52565;DHT22;38460;53.106;7.004;2023-09-30T12:11:20;19.30;99.90
52565;DHT22;38460;53.106;7.004;2023-09-30T12:13:47;19.40;99.90
52565;DHT22;38460;53.106;7.004;2023-09-30T12:16:16;19.50;99.90
52565;DHT22;38460;53.106;7.004;2023-09-30T12:18:42;19.60;99.90
52565;DHT22;38460;53.106;7.004;2023-09-30T12:21:10;19.70;99.90
52565;DHT22;38460;53.106;7.004;2023-09-30T12:23:37;19.90;99.90
52565;DHT22;38460;53.106;7.004;2023-09-30T12:26:03;20.00;99.90
52565;DHT22;38460;53.106;7.004;2023-09-30T12:28:33;20.00;99.90
52565;DHT22;38460;53.106;7.004;2023-09-30T12:31:00;19.90;99.90
52565;DHT22;38460;53.106;7.004;2023-09-30T12:33:30;19.90;99.90
52565;DHT22;38460;53.106;7.004;2023-09-30T12:35:57;19.90;99.90
52565;DHT22;38460;53.106;7.004;2023-09-30T12:38:24;20.00;99.90
52565;DHT22;38460;53.106;7.004;2023-09-30T12:40:52;19.90;99.90
52565;DHT22;38460;53.106;7.004;2023-09-30T12:43:19;19.90;99.90
52565;DHT22;38460;53.106;7.004;2023-09-30T12:45:46;19.90;99.90
52565;DHT22;38460;53.106;7.004;2023-09-30T12:48:13;19.80;99.90
52565;DHT22;38460;53.106;7.004;2023-09-30T12:50:40;19.70;99.90
52565;DHT22;38460;53.106;7.004;2023-09-30T12:53:06;19.60;99.90
52565;DHT22;38460;53.106;7.004;2023-09-30T12:55:32;19.60;99.90
52565;DHT22;38460;53.106;7.004;2023-09-30T12:57:58;19.40;99.90
52565;DHT22;38460;53.106;7.004;2023-09-30T13:00:25;19.30;99.90
52565;DHT22;38460;53.106;7.004;2023-09-30T13:02:52;19.20;99.90
52565;DHT22;38460;53.106;7.004;2023-09-30T13:05:18;19.10;99.90
52565;DHT22;38460;53.106;7.004;2023-09-30T13:07:45;19.00;99.90
52565;DHT22;38460;53.106;7.004;2023-09-30T13:10:11;18.90;99.90
52565;DHT22;38460;53.106;7.004;2023-09-30T13:12:38;18.80;99.90
52565;DHT22;38460;53.106;7.004;2023-09-30T13:15:05;18.70;99.90
52565;DHT22;38460;53.106;7.004;2023-09-30T13:17:31;18.60;99.90
52565;DHT22;38460;53.106;7.004;2023-09-30T13:19:58;18.70;99.90
52565;DHT22;38460;53.106;7.004;2023-09-30T13:22:24;18.50;99.90
52565;DHT22;38460;53.106;7.004;2023-09-30T13:24:49;18.40;99.90
52565;DHT22;38460;53.106;7.004;2023-09-30T13:27:16;18.50;99.90
52565;DHT22;38460;53.106;7.004;2023-09-30T13:29:43;18.30;99.90
52565;DHT22;38460;53.106;7.004;2023-09-30T13:32:10;18.30;99.90
52565;DHT22;38460;53.106;7.004;2023-09-30T13:34:36;18.20;99.90
52565;DHT22;38460;53.106;7.004;2023-09-30T13:37:02;18.20;99.90
52565;DHT22;38460;53.106;7.004;2023-09-30T13:39:27;18.20;99.90
52565;DHT22;38460;53.106;7.004;2023-09-30T13:41:54;18.20;99.90
52565;DHT22;38460;53.106;7.004;2023-09-30T13:44:20;18.20;99.90
52565;DHT22;38460;53.106;7.004;2023-09-30T13:46:47;18.20;99.90
52565;DHT22;38460;53.106;7.004;2023-09-30T13:49:13;18.20;99.90
52565;DHT22;38460;53.106;7.004;2023-09-30T13:51:39;18.30;99.90
52565;DHT22;38460;53.106;7.004;2023-09-30T13:54:05;18.40;99.90
52565;DHT22;38460;53.106;7.004;2023-09-30T13:56:33;18.50;99.90
52565;DHT22;38460;53.106;7.004;2023-09-30T13:58:59;18.50;99.90
52565;DHT22;38460;53.106;7.004;2023-09-30T14:01:25;18.50;99.90
52565;DHT22;38460;53.106;7.004;2023-09-30T14:03:52;18.60;99.90
52565;DHT22;38460;53.106;7.004;2023-09-30T14:06:22;18.70;99.90
52565;DHT22;38460;53.106;7.004;2023-09-30T14:08:48;18.70;99.90
52565;DHT22;38460;53.106;7.004;2023-09-30T14:11:14;18.80;99.90
52565;DHT22;38460;53.106;7.004;2023-09-30T14:13:40;18.90;99.90
52565;DHT22;38460;53.106;7.004;2023-09-30T14:16:07;19.00;99.90
52565;DHT22;38460;53.106;7.004;2023-09-30T14:18:33;19.00;99.90
52565;DHT22;38460;53.106;7.004;2023-09-30T14:20:59;19.00;99.90
52565;DHT22;38460;53.106;7.004;2023-09-30T14:23:26;19.00;99.90
52565;DHT22;38460;53.106;7.004;2023-09-30T14:25:55;19.00;99.90
52565;DHT22;38460;53.106;7.004;2023-09-30T14:28:22;19.00;99.90
52565;DHT22;38460;53.106;7.004;2023-09-30T14:30:48;19.00;99.90
52565;DHT22;38460;53.106;7.004;2023-09-30T14:33:16;19.00;99.90
52565;DHT22;38460;53.106;7.004;2023-09-30T14:35:41;19.00;99.90
52565;DHT22;38460;53.106;7.004;2023-09-30T14:38:09;19.00;99.90
52565;DHT22;38460;53.106;7.004;2023-09-30T14:40:40;19.00;99.90
52565;DHT22;38460;53.106;7.004;2023-09-30T14:43:06;19.00;99.90
52565;DHT22;38460;53.106;7.004;2023-09-30T14:45:37;19.00;99.90
52565;DHT22;38460;53.106;7.004;2023-09-30T14:48:03;19.00;99.90
52565;DHT22;38460;53.106;7.004;2023-09-30T14:50:29;18.90;99.90
52565;DHT22;38460;53.106;7.004;2023-09-30T14:52:55;18.90;99.90
52565;DHT22;38460;53.106;7.004;2023-09-30T14:55:20;18.90;99.90
52565;DHT22;38460;53.106;7.004;2023-09-30T14:57:46;18.90;99.90
52565;DHT22;38460;53.106;7.004;2023-09-30T15:00:13;18.90;99.90
52565;DHT22;38460;53.106;7.004;2023-09-30T15:02:38;18.80;99.90
52565;DHT22;38460;53.106;7.004;2023-09-30T15:05:06;18.80;99.90
52565;DHT22;38460;53.106;7.004;2023-09-30T15:07:32;18.80;99.90
52565;DHT22;38460;53.106;7.004;2023-09-30T15:09:57;18.70;99.90
52565;DHT22;38460;53.106;7.004;2023-09-30T15:12:23;18.70;99.90
52565;DHT22;38460;53.106;7.004;2023-09-30T15:14:49;18.70;99.90
52565;DHT22;38460;53.106;7.004;2023-09-30T15:17:16;18.70;99.90
52565;DHT22;38460;53.106;7.004;2023-09-30T15:19:42;18.60;99.90
52565;DHT22;38460;53.106;7.004;2023-09-30T15:22:08;18.60;99.90
52565;DHT22;38460;53.106;7.004;2023-09-30T15:24:34;18.50;99.90
52565;DHT22;38460;53.106;7.004;2023-09-30T15:27:00;18.50;99.90
52565;DHT22;38460;53.106;7.004;2023-09-30T15:29:26;18.50;99.90
52565;DHT22;38460;53.106;7.004;2023-09-30T15:31:52;18.40;99.90
52565;DHT22;38460;53.106;7.004;2023-09-30T15:34:18;18.40;99.90
52565;DHT22;38460;53.106;7.004;2023-09-30T15:36:44;18.30;99.90
52565;DHT22;38460;53.106;7.004;2023-09-30T15:39:09;18.30;99.90
52565;DHT22;38460;53.106;7.004;2023-09-30T15:41:35;18.30;99.90
52565;DHT22;38460;53.106;7.004;2023-09-30T15:44:01;18.20;99.90
52565;DHT22;38460;53.106;7.004;2023-09-30T15:46:27;18.20;99.90
52565;DHT22;38460;53.106;7.004;2023-09-30T15:48:52;18.20;99.90
52565;DHT22;38460;53.106;7.004;2023-09-30T15:51:18;18.10;99.90